sensor_id;sensor_type;location;lat;lon;timestamp;P1;durP1;ratioP1;P2;durP2;ratioP2
42430;SDS011;71905;47.466;19.024;2024-01-06T00:00:03;32.38;;;18.80;;
42430;SDS011;71905;47.466;19.024;2024-01-06T00:02:37;32.70;;;20.23;;
42430;SDS011;71905;47.466;19.024;2024-01-06T00:05:05;35.03;;;20.08;;
42430;SDS011;71905;47.466;19.024;2024-01-06T00:07:34;36.85;;;20.40;;
42430;SDS011;71905;47.466;19.024;2024-01-06T00:10:02;33.95;;;20.27;;
42430;SDS011;71905;47.466;19.024;2024-01-06T00:12:31;29.73;;;17.63;;
42430;SDS011;71905;47.466;19.024;2024-01-06T00:14:59;33.55;;;20.30;;
42430;SDS011;71905;47.466;19.024;2024-01-06T00:17:27;37.13;;;19.80;;
42430;SDS011;71905;47.466;19.024;2024-01-06T00:19:55;30.00;;;18.80;;
42430;SDS011;71905;47.466;19.024;2024-01-06T00:22:23;31.50;;;18.40;;
42430;SDS011;71905;47.466;19.024;2024-01-06T00:24:52;31.35;;;19.65;;
42430;SDS011;71905;47.466;19.024;2024-01-06T00:27:20;36.78;;;20.67;;
42430;SDS011;71905;47.466;19.024;2024-01-06T00:29:49;36.78;;;21.42;;
42430;SDS011;71905;47.466;19.024;2024-01-06T00:32:17;32.22;;;20.40;;
42430;SDS011;71905;47.466;19.024;2024-01-06T00:34:45;35.40;;;21.27;;
42430;SDS011;71905;47.466;19.024;2024-01-06T00:37:14;38.15;;;22.25;;
42430;SDS011;71905;47.466;19.024;2024-01-06T00:39:42;35.83;;;22.48;;
42430;SDS011;71905;47.466;19.024;2024-01-06T00:42:10;35.00;;;21.85;;
42430;SDS011;71905;47.466;19.024;2024-01-06T00:44:38;33.58;;;20.42;;
42430;SDS011;71905;47.466;19.024;2024-01-06T00:47:07;32.00;;;20.67;;
42430;SDS011;71905;47.466;19.024;2024-01-06T00:49:35;36.53;;;21.52;;
42430;SDS011;71905;47.466;19.024;2024-01-06T00:52:04;33.17;;;20.27;;
42430;SDS011;71905;47.466;19.024;2024-01-06T00:54:32;36.50;;;21.75;;
42430;SDS011;71905;47.466;19.024;2024-01-06T00:57:00;35.10;;;21.77;;
42430;SDS011;71905;47.466;19.024;2024-01-06T00:59:28;33.63;;;21.05;;
42430;SDS011;71905;47.466;19.024;2024-01-06T01:01:56;33.25;;;21.08;;
42430;SDS011;71905;47.466;19.024;2024-01-06T01:04:25;34.92;;;21.27;;
42430;SDS011;71905;47.466;19.024;2024-01-06T01:06:53;31.02;;;21.35;;
42430;SDS011;71905;47.466;19.024;2024-01-06T01:09:21;36.63;;;21.50;;
42430;SDS011;71905;47.466;19.024;2024-01-06T01:11:49;33.47;;;20.23;;
42430;SDS011;71905;47.466;19.024;2024-01-06T01:14:17;34.80;;;21.42;;
42430;SDS011;71905;47.466;19.024;2024-01-06T01:16:46;30.95;;;20.15;;
42430;SDS011;71905;47.466;19.024;2024-01-06T01:19:14;33.78;;;21.98;;
42430;SDS011;71905;47.466;19.024;2024-01-06T01:21:43;32.35;;;20.27;;
42430;SDS011;71905;47.466;19.024;2024-01-06T01:24:11;33.13;;;19.15;;
42430;SDS011;71905;47.466;19.024;2024-01-06T01:26:39;32.22;;;20.08;;
42430;SDS011;71905;47.466;19.024;2024-01-06T01:29:07;34.22;;;22.50;;
42430;SDS011;71905;47.466;19.024;2024-01-06T01:31:35;32.95;;;21.17;;
42430;SDS011;71905;47.466;19.024;2024-01-06T01:34:04;33.90;;;21.75;;
42430;SDS011;71905;47.466;19.024;2024-01-06T01:36:32;31.85;;;19.70;;
42430;SDS011;71905;47.466;19.024;2024-01-06T01:39:01;31.70;;;20.40;;
42430;SDS011;71905;47.466;19.024;2024-01-06T01:41:29;29.80;;;19.85;;
42430;SDS011;71905;47.466;19.024;2024-01-06T01:43:57;31.20;;;21.08;;
42430;SDS011;71905;47.466;19.024;2024-01-06T01:46:25;29.48;;;20.05;;
42430;SDS011;71905;47.466;19.024;2024-01-06T01:48:54;33.60;;;20.83;;
42430;SDS011;71905;47.466;19.024;2024-01-06T01:51:23;31.45;;;20.80;;
42430;SDS011;71905;47.466;19.024;2024-01-06T01:53:54;32.95;;;19.90;;
42430;SDS011;71905;47.466;19.024;2024-01-06T01:56:24;27.58;;;18.98;;
42430;SDS011;71905;47.466;19.024;2024-01-06T01:58:53;36.42;;;22.00;;
42430;SDS011;71905;47.466;19.024;2024-01-06T02:01:22;30.67;;;20.30;;
42430;SDS011;71905;47.466;19.024;2024-01-06T02:03:50;33.00;;;19.75;;
42430;SDS011;71905;47.466;19.024;2024-01-06T02:06:18;31.80;;;19.50;;
42430;SDS011;71905;47.466;19.024;2024-01-06T02:08:46;32.50;;;20.85;;
42430;SDS011;71905;47.466;19.024;2024-01-06T02:11:14;29.52;;;19.10;;
42430;SDS011;71905;47.466;19.024;2024-01-06T02:13:43;29.13;;;19.92;;
42430;SDS011;71905;47.466;19.024;2024-01-06T02:16:11;31.77;;;18.77;;
42430;SDS011;71905;47.466;19.024;2024-01-06T02:18:39;30.08;;;19.13;;
42430;SDS011;71905;47.466;19.024;2024-01-06T02:21:08;27.63;;;17.83;;
42430;SDS011;71905;47.466;19.024;2024-01-06T02:23:38;27.13;;;18.20;;
42430;SDS011;71905;47.466;19.024;2024-01-06T02:26:06;34.03;;;18.52;;
42430;SDS011;71905;47.466;19.024;2024-01-06T02:28:34;28.92;;;18.38;;
42430;SDS011;71905;47.466;19.024;2024-01-06T02:31:02;33.35;;;19.45;;
42430;SDS011;71905;47.466;19.024;2024-01-06T02:33:31;32.78;;;19.23;;
42430;SDS011;71905;47.466;19.024;2024-01-06T02:36:12;30.45;;;20.05;;
42430;SDS011;71905;47.466;19.024;2024-01-06T02:38:41;30.83;;;19.83;;
42430;SDS011;71905;47.466;19.024;2024-01-06T02:41:09;34.75;;;20.45;;
42430;SDS011;71905;47.466;19.024;2024-01-06T02:43:37;29.08;;;19.45;;
42430;SDS011;71905;47.466;19.024;2024-01-06T02:46:06;31.75;;;21.10;;
42430;SDS011;71905;47.466;19.024;2024-01-06T02:48:34;33.83;;;21.25;;
42430;SDS011;71905;47.466;19.024;2024-01-06T02:51:03;30.88;;;19.55;;
42430;SDS011;71905;47.466;19.024;2024-01-06T02:53:31;29.92;;;19.30;;
42430;SDS011;71905;47.466;19.024;2024-01-06T02:56:00;33.05;;;21.20;;
42430;SDS011;71905;47.466;19.024;2024-01-06T02:58:28;28.05;;;18.67;;
42430;SDS011;71905;47.466;19.024;2024-01-06T03:00:56;31.13;;;21.15;;
42430;SDS011;71905;47.466;19.024;2024-01-06T03:03:25;32.10;;;20.48;;
42430;SDS011;71905;47.466;19.024;2024-01-06T03:05:54;33.05;;;20.80;;
42430;SDS011;71905;47.466;19.024;2024-01-06T03:08:22;29.20;;;20.73;;
42430;SDS011;71905;47.466;19.024;2024-01-06T03:10:50;31.77;;;21.42;;
42430;SDS011;71905;47.466;19.024;2024-01-06T03:13:19;35.35;;;22.52;;
42430;SDS011;71905;47.466;19.024;2024-01-06T03:15:47;33.55;;;22.65;;
42430;SDS011;71905;47.466;19.024;2024-01-06T03:18:15;35.10;;;22.40;;
42430;SDS011;71905;47.466;19.024;2024-01-06T03:20:43;34.45;;;23.48;;
42430;SDS011;71905;47.466;19.024;2024-01-06T03:23:11;39.65;;;23.00;;
42430;SDS011;71905;47.466;19.024;2024-01-06T03:25:39;34.40;;;22.65;;
42430;SDS011;71905;47.466;19.024;2024-01-06T03:28:07;37.20;;;23.63;;
42430;SDS011;71905;47.466;19.024;2024-01-06T03:30:36;34.60;;;23.15;;
42430;SDS011;71905;47.466;19.024;2024-01-06T03:33:05;37.95;;;23.27;;
42430;SDS011;71905;47.466;19.024;2024-01-06T03:35:34;37.72;;;24.35;;
42430;SDS011;71905;47.466;19.024;2024-01-06T03:38:02;37.55;;;23.98;;
42430;SDS011;71905;47.466;19.024;2024-01-06T03:40:30;33.83;;;22.30;;
42430;SDS011;71905;47.466;19.024;2024-01-06T03:42:58;35.60;;;22.98;;
42430;SDS011;71905;47.466;19.024;2024-01-06T03:45:26;32.97;;;22.02;;
42430;SDS011;71905;47.466;19.024;2024-01-06T03:47:56;32.47;;;22.25;;
42430;SDS011;71905;47.466;19.024;2024-01-06T03:50:24;35.22;;;22.42;;
42430;SDS011;71905;47.466;19.024;2024-01-06T03:52:52;31.88;;;21.13;;
42430;SDS011;71905;47.466;19.024;2024-01-06T03:55:20;32.92;;;22.10;;
42430;SDS011;71905;47.466;19.024;2024-01-06T03:57:48;36.40;;;22.92;;
42430;SDS011;71905;47.466;19.024;2024-01-06T04:00:16;35.08;;;22.90;;
42430;SDS011;71905;47.466;19.024;2024-01-06T04:02:45;31.70;;;21.15;;
42430;SDS011;71905;47.466;19.024;2024-01-06T04:05:14;34.60;;;22.95;;
42430;SDS011;71905;47.466;19.024;2024-01-06T04:07:42;35.78;;;23.30;;
42430;SDS011;71905;47.466;19.024;2024-01-06T04:10:10;32.67;;;20.75;;
42430;SDS011;71905;47.466;19.024;2024-01-06T04:12:38;30.50;;;20.77;;
42430;SDS011;71905;47.466;19.024;2024-01-06T04:15:07;36.03;;;23.52;;
42430;SDS011;71905;47.466;19.024;2024-01-06T04:17:35;33.58;;;23.20;;
42430;SDS011;71905;47.466;19.024;2024-01-06T04:20:03;35.30;;;23.42;;
42430;SDS011;71905;47.466;19.024;2024-01-06T04:22:33;34.65;;;24.48;;
42430;SDS011;71905;47.466;19.024;2024-01-06T04:25:01;33.20;;;23.60;;
42430;SDS011;71905;47.466;19.024;2024-01-06T04:27:30;35.15;;;22.70;;
42430;SDS011;71905;47.466;19.024;2024-01-06T04:30:00;32.42;;;22.02;;
42430;SDS011;71905;47.466;19.024;2024-01-06T04:32:28;32.83;;;22.92;;
42430;SDS011;71905;47.466;19.024;2024-01-06T04:34:56;33.67;;;22.38;;
42430;SDS011;71905;47.466;19.024;2024-01-06T04:37:24;30.52;;;21.52;;
42430;SDS011;71905;47.466;19.024;2024-01-06T04:39:54;29.67;;;21.23;;
42430;SDS011;71905;47.466;19.024;2024-01-06T04:42:22;34.38;;;22.90;;
42430;SDS011;71905;47.466;19.024;2024-01-06T04:44:50;31.10;;;21.83;;
42430;SDS011;71905;47.466;19.024;2024-01-06T04:47:18;31.10;;;20.88;;
42430;SDS011;71905;47.466;19.024;2024-01-06T04:49:46;30.00;;;20.33;;
42430;SDS011;71905;47.466;19.024;2024-01-06T04:52:14;36.15;;;23.10;;
42430;SDS011;71905;47.466;19.024;2024-01-06T04:54:42;34.10;;;22.15;;
42430;SDS011;71905;47.466;19.024;2024-01-06T04:57:12;33.53;;;22.88;;
42430;SDS011;71905;47.466;19.024;2024-01-06T04:59:40;32.88;;;21.98;;
42430;SDS011;71905;47.466;19.024;2024-01-06T05:02:08;34.95;;;22.52;;
42430;SDS011;71905;47.466;19.024;2024-01-06T05:04:37;35.10;;;22.17;;
42430;SDS011;71905;47.466;19.024;2024-01-06T05:07:05;34.40;;;22.73;;
42430;SDS011;71905;47.466;19.024;2024-01-06T05:09:33;37.53;;;25.17;;
42430;SDS011;71905;47.466;19.024;2024-01-06T05:12:02;35.17;;;23.25;;
42430;SDS011;71905;47.466;19.024;2024-01-06T05:14:31;37.40;;;24.50;;
42430;SDS011;71905;47.466;19.024;2024-01-06T05:16:59;33.20;;;22.52;;
42430;SDS011;71905;47.466;19.024;2024-01-06T05:19:27;35.42;;;23.70;;
42430;SDS011;71905;47.466;19.024;2024-01-06T05:21:56;34.70;;;23.10;;
42430;SDS011;71905;47.466;19.024;2024-01-06T05:24:24;35.17;;;22.98;;
42430;SDS011;71905;47.466;19.024;2024-01-06T05:26:51;34.05;;;23.08;;
42430;SDS011;71905;47.466;19.024;2024-01-06T05:29:19;36.85;;;24.55;;
42430;SDS011;71905;47.466;19.024;2024-01-06T05:31:48;35.42;;;23.02;;
42430;SDS011;71905;47.466;19.024;2024-01-06T05:34:16;37.95;;;24.70;;
42430;SDS011;71905;47.466;19.024;2024-01-06T05:36:45;34.15;;;24.27;;
42430;SDS011;71905;47.466;19.024;2024-01-06T05:39:13;38.38;;;25.13;;
42430;SDS011;71905;47.466;19.024;2024-01-06T05:41:41;35.78;;;23.73;;
42430;SDS011;71905;47.466;19.024;2024-01-06T05:44:09;31.80;;;21.63;;
42430;SDS011;71905;47.466;19.024;2024-01-06T05:46:37;35.60;;;23.75;;
42430;SDS011;71905;47.466;19.024;2024-01-06T05:49:07;31.45;;;21.80;;
42430;SDS011;71905;47.466;19.024;2024-01-06T05:51:36;38.53;;;24.35;;
42430;SDS011;71905;47.466;19.024;2024-01-06T05:54:04;33.55;;;23.13;;
42430;SDS011;71905;47.466;19.024;2024-01-06T05:56:32;33.97;;;23.05;;
42430;SDS011;71905;47.466;19.024;2024-01-06T05:59:00;33.72;;;23.75;;
42430;SDS011;71905;47.466;19.024;2024-01-06T06:01:29;35.15;;;23.33;;
42430;SDS011;71905;47.466;19.024;2024-01-06T06:03:57;35.67;;;23.70;;
42430;SDS011;71905;47.466;19.024;2024-01-06T06:06:27;36.33;;;23.85;;
42430;SDS011;71905;47.466;19.024;2024-01-06T06:08:55;35.85;;;23.63;;
42430;SDS011;71905;47.466;19.024;2024-01-06T06:11:22;29.17;;;20.83;;
42430;SDS011;71905;47.466;19.024;2024-01-06T06:13:50;32.60;;;22.23;;
42430;SDS011;71905;47.466;19.024;2024-01-06T06:16:19;35.45;;;23.55;;
42430;SDS011;71905;47.466;19.024;2024-01-06T06:18:47;30.77;;;21.92;;
42430;SDS011;71905;47.466;19.024;2024-01-06T06:21:15;32.17;;;21.48;;
42430;SDS011;71905;47.466;19.024;2024-01-06T06:23:44;34.17;;;22.75;;
42430;SDS011;71905;47.466;19.024;2024-01-06T06:26:12;32.03;;;22.08;;
42430;SDS011;71905;47.466;19.024;2024-01-06T06:28:40;35.35;;;22.15;;
42430;SDS011;71905;47.466;19.024;2024-01-06T06:31:09;33.33;;;21.55;;
42430;SDS011;71905;47.466;19.024;2024-01-06T06:33:37;32.97;;;22.23;;
42430;SDS011;71905;47.466;19.024;2024-01-06T06:36:07;34.45;;;23.27;;
42430;SDS011;71905;47.466;19.024;2024-01-06T06:38:35;31.10;;;21.70;;
42430;SDS011;71905;47.466;19.024;2024-01-06T06:41:04;33.33;;;21.65;;
42430;SDS011;71905;47.466;19.024;2024-01-06T06:43:34;31.25;;;22.20;;
42430;SDS011;71905;47.466;19.024;2024-01-06T06:46:02;35.05;;;23.88;;
42430;SDS011;71905;47.466;19.024;2024-01-06T06:48:30;31.52;;;21.42;;
42430;SDS011;71905;47.466;19.024;2024-01-06T06:50:58;31.80;;;22.05;;
42430;SDS011;71905;47.466;19.024;2024-01-06T06:53:26;29.98;;;21.92;;
42430;SDS011;71905;47.466;19.024;2024-01-06T06:55:54;34.17;;;21.92;;
42430;SDS011;71905;47.466;19.024;2024-01-06T06:58:23;34.17;;;22.45;;
42430;SDS011;71905;47.466;19.024;2024-01-06T07:00:51;33.40;;;22.05;;
42430;SDS011;71905;47.466;19.024;2024-01-06T07:03:20;31.75;;;21.85;;
42430;SDS011;71905;47.466;19.024;2024-01-06T07:05:49;34.88;;;21.90;;
42430;SDS011;71905;47.466;19.024;2024-01-06T07:08:17;32.15;;;22.52;;
42430;SDS011;71905;47.466;19.024;2024-01-06T07:10:45;30.40;;;22.13;;
42430;SDS011;71905;47.466;19.024;2024-01-06T07:13:13;33.20;;;22.40;;
42430;SDS011;71905;47.466;19.024;2024-01-06T07:15:42;34.63;;;21.33;;
42430;SDS011;71905;47.466;19.024;2024-01-06T07:18:11;32.92;;;21.58;;
42430;SDS011;71905;47.466;19.024;2024-01-06T07:20:39;32.15;;;20.85;;
42430;SDS011;71905;47.466;19.024;2024-01-06T07:23:07;31.67;;;20.42;;
42430;SDS011;71905;47.466;19.024;2024-01-06T07:25:37;30.98;;;20.42;;
42430;SDS011;71905;47.466;19.024;2024-01-06T07:28:05;28.85;;;20.52;;
42430;SDS011;71905;47.466;19.024;2024-01-06T07:30:34;28.70;;;19.95;;
42430;SDS011;71905;47.466;19.024;2024-01-06T07:33:04;28.73;;;20.08;;
42430;SDS011;71905;47.466;19.024;2024-01-06T07:35:32;33.13;;;20.63;;
42430;SDS011;71905;47.466;19.024;2024-01-06T07:38:00;29.92;;;20.48;;
42430;SDS011;71905;47.466;19.024;2024-01-06T07:40:28;28.48;;;19.10;;
42430;SDS011;71905;47.466;19.024;2024-01-06T07:42:56;26.77;;;17.98;;
42430;SDS011;71905;47.466;19.024;2024-01-06T07:45:24;27.85;;;18.80;;
42430;SDS011;71905;47.466;19.024;2024-01-06T07:47:52;26.23;;;18.20;;
42430;SDS011;71905;47.466;19.024;2024-01-06T07:50:21;27.27;;;19.17;;
42430;SDS011;71905;47.466;19.024;2024-01-06T07:52:49;27.50;;;18.27;;
42430;SDS011;71905;47.466;19.024;2024-01-06T07:55:17;28.00;;;17.63;;
42430;SDS011;71905;47.466;19.024;2024-01-06T07:57:45;28.35;;;19.27;;
42430;SDS011;71905;47.466;19.024;2024-01-06T08:00:13;29.92;;;19.50;;
42430;SDS011;71905;47.466;19.024;2024-01-06T08:02:42;25.85;;;17.58;;
42430;SDS011;71905;47.466;19.024;2024-01-06T08:05:10;30.70;;;18.48;;
42430;SDS011;71905;47.466;19.024;2024-01-06T08:07:39;32.30;;;20.27;;
42430;SDS011;71905;47.466;19.024;2024-01-06T08:10:07;30.60;;;19.52;;
42430;SDS011;71905;47.466;19.024;2024-01-06T08:12:36;29.02;;;18.80;;
42430;SDS011;71905;47.466;19.024;2024-01-06T08:15:05;29.10;;;19.95;;
42430;SDS011;71905;47.466;19.024;2024-01-06T08:17:35;28.30;;;18.50;;
42430;SDS011;71905;47.466;19.024;2024-01-06T08:20:04;30.52;;;20.05;;
42430;SDS011;71905;47.466;19.024;2024-01-06T08:22:32;28.50;;;19.40;;
42430;SDS011;71905;47.466;19.024;2024-01-06T08:25:01;28.58;;;18.77;;
42430;SDS011;71905;47.466;19.024;2024-01-06T08:27:32;28.92;;;18.58;;
42430;SDS011;71905;47.466;19.024;2024-01-06T08:30:00;30.73;;;18.95;;
42430;SDS011;71905;47.466;19.024;2024-01-06T08:32:29;30.55;;;18.13;;
42430;SDS011;71905;47.466;19.024;2024-01-06T08:34:57;25.42;;;18.13;;
42430;SDS011;71905;47.466;19.024;2024-01-06T08:37:25;26.90;;;18.65;;
42430;SDS011;71905;47.466;19.024;2024-01-06T08:39:53;27.65;;;18.08;;
42430;SDS011;71905;47.466;19.024;2024-01-06T08:42:22;27.33;;;17.42;;
42430;SDS011;71905;47.466;19.024;2024-01-06T08:44:52;25.38;;;17.65;;
42430;SDS011;71905;47.466;19.024;2024-01-06T08:47:20;27.80;;;16.98;;
42430;SDS011;71905;47.466;19.024;2024-01-06T08:49:48;25.88;;;17.48;;
42430;SDS011;71905;47.466;19.024;2024-01-06T08:52:16;28.48;;;17.88;;
42430;SDS011;71905;47.466;19.024;2024-01-06T08:54:44;26.23;;;18.30;;
42430;SDS011;71905;47.466;19.024;2024-01-06T08:57:12;24.58;;;17.75;;
42430;SDS011;71905;47.466;19.024;2024-01-06T08:59:42;25.23;;;17.35;;
42430;SDS011;71905;47.466;19.024;2024-01-06T09:02:12;25.55;;;17.27;;
42430;SDS011;71905;47.466;19.024;2024-01-06T09:04:39;23.67;;;17.02;;
42430;SDS011;71905;47.466;19.024;2024-01-06T09:07:07;27.00;;;17.10;;
42430;SDS011;71905;47.466;19.024;2024-01-06T09:09:37;25.50;;;16.85;;
42430;SDS011;71905;47.466;19.024;2024-01-06T09:12:05;27.10;;;16.92;;
42430;SDS011;71905;47.466;19.024;2024-01-06T09:14:33;26.50;;;15.65;;
42430;SDS011;71905;47.466;19.024;2024-01-06T09:17:03;26.83;;;16.00;;
42430;SDS011;71905;47.466;19.024;2024-01-06T09:19:31;25.08;;;16.45;;
42430;SDS011;71905;47.466;19.024;2024-01-06T09:22:00;24.90;;;15.80;;
42430;SDS011;71905;47.466;19.024;2024-01-06T09:24:28;22.38;;;15.82;;
42430;SDS011;71905;47.466;19.024;2024-01-06T09:26:56;23.40;;;15.75;;
42430;SDS011;71905;47.466;19.024;2024-01-06T09:29:24;27.35;;;16.85;;
42430;SDS011;71905;47.466;19.024;2024-01-06T09:31:52;23.58;;;16.20;;
42430;SDS011;71905;47.466;19.024;2024-01-06T09:34:21;23.45;;;15.73;;
42430;SDS011;71905;47.466;19.024;2024-01-06T09:36:50;23.27;;;15.80;;
42430;SDS011;71905;47.466;19.024;2024-01-06T09:39:18;26.33;;;16.20;;
42430;SDS011;71905;47.466;19.024;2024-01-06T09:41:46;26.40;;;16.00;;
42430;SDS011;71905;47.466;19.024;2024-01-06T09:44:14;24.63;;;15.02;;
42430;SDS011;71905;47.466;19.024;2024-01-06T09:46:43;22.90;;;15.13;;
42430;SDS011;71905;47.466;19.024;2024-01-06T09:49:12;23.35;;;15.50;;
42430;SDS011;71905;47.466;19.024;2024-01-06T09:51:43;23.75;;;15.48;;
42430;SDS011;71905;47.466;19.024;2024-01-06T09:54:19;24.17;;;15.00;;
42430;SDS011;71905;47.466;19.024;2024-01-06T09:56:50;23.48;;;15.77;;
42430;SDS011;71905;47.466;19.024;2024-01-06T09:59:18;23.20;;;15.75;;
42430;SDS011;71905;47.466;19.024;2024-01-06T10:01:46;23.83;;;16.00;;
42430;SDS011;71905;47.466;19.024;2024-01-06T10:04:16;24.60;;;15.30;;
42430;SDS011;71905;47.466;19.024;2024-01-06T10:06:51;23.23;;;14.85;;
42430;SDS011;71905;47.466;19.024;2024-01-06T10:09:24;22.67;;;14.90;;
42430;SDS011;71905;47.466;19.024;2024-01-06T10:11:54;22.77;;;14.75;;
42430;SDS011;71905;47.466;19.024;2024-01-06T10:14:23;22.65;;;14.63;;
42430;SDS011;71905;47.466;19.024;2024-01-06T10:16:52;32.28;;;15.15;;
42430;SDS011;71905;47.466;19.024;2024-01-06T10:19:20;24.15;;;17.05;;
42430;SDS011;71905;47.466;19.024;2024-01-06T10:21:48;24.65;;;15.77;;
42430;SDS011;71905;47.466;19.024;2024-01-06T10:24:20;24.20;;;14.50;;
42430;SDS011;71905;47.466;19.024;2024-01-06T10:26:48;24.90;;;16.33;;
42430;SDS011;71905;47.466;19.024;2024-01-06T10:29:16;24.10;;;16.35;;
42430;SDS011;71905;47.466;19.024;2024-01-06T10:31:44;25.42;;;15.75;;
42430;SDS011;71905;47.466;19.024;2024-01-06T10:34:16;22.38;;;15.57;;
42430;SDS011;71905;47.466;19.024;2024-01-06T10:36:45;23.23;;;16.60;;
42430;SDS011;71905;47.466;19.024;2024-01-06T10:39:14;24.08;;;15.82;;
42430;SDS011;71905;47.466;19.024;2024-01-06T10:41:44;25.23;;;16.23;;
42430;SDS011;71905;47.466;19.024;2024-01-06T10:44:13;23.00;;;14.88;;
42430;SDS011;71905;47.466;19.024;2024-01-06T10:46:42;23.00;;;15.88;;
42430;SDS011;71905;47.466;19.024;2024-01-06T10:49:12;27.05;;;16.33;;
42430;SDS011;71905;47.466;19.024;2024-01-06T10:51:40;25.83;;;15.65;;
42430;SDS011;71905;47.466;19.024;2024-01-06T10:54:09;23.58;;;15.80;;
42430;SDS011;71905;47.466;19.024;2024-01-06T10:56:41;22.98;;;15.60;;
42430;SDS011;71905;47.466;19.024;2024-01-06T10:59:14;24.40;;;15.90;;
42430;SDS011;71905;47.466;19.024;2024-01-06T11:01:42;26.90;;;16.35;;
42430;SDS011;71905;47.466;19.024;2024-01-06T11:04:12;27.92;;;17.20;;
42430;SDS011;71905;47.466;19.024;2024-01-06T11:06:40;25.95;;;17.05;;
42430;SDS011;71905;47.466;19.024;2024-01-06T11:09:09;25.67;;;16.95;;
42430;SDS011;71905;47.466;19.024;2024-01-06T11:11:46;24.92;;;16.75;;
42430;SDS011;71905;47.466;19.024;2024-01-06T11:14:27;23.65;;;15.80;;
42430;SDS011;71905;47.466;19.024;2024-01-06T11:16:56;21.85;;;16.15;;
42430;SDS011;71905;47.466;19.024;2024-01-06T11:19:43;24.92;;;16.42;;
42430;SDS011;71905;47.466;19.024;2024-01-06T11:22:23;24.65;;;15.15;;
42430;SDS011;71905;47.466;19.024;2024-01-06T11:24:54;28.75;;;19.27;;
42430;SDS011;71905;47.466;19.024;2024-01-06T11:27:25;25.45;;;17.77;;
42430;SDS011;71905;47.466;19.024;2024-01-06T11:29:56;27.05;;;17.50;;
42430;SDS011;71905;47.466;19.024;2024-01-06T11:32:25;26.20;;;17.65;;
42430;SDS011;71905;47.466;19.024;2024-01-06T11:34:55;23.05;;;16.60;;
42430;SDS011;71905;47.466;19.024;2024-01-06T11:37:34;24.45;;;17.55;;
42430;SDS011;71905;47.466;19.024;2024-01-06T11:40:07;25.55;;;18.05;;
42430;SDS011;71905;47.466;19.024;2024-01-06T11:42:37;24.27;;;17.70;;
42430;SDS011;71905;47.466;19.024;2024-01-06T11:45:08;27.00;;;18.02;;
42430;SDS011;71905;47.466;19.024;2024-01-06T11:47:36;28.05;;;18.38;;
42430;SDS011;71905;47.466;19.024;2024-01-06T11:50:08;25.45;;;17.67;;
42430;SDS011;71905;47.466;19.024;2024-01-06T11:52:37;25.63;;;18.35;;
42430;SDS011;71905;47.466;19.024;2024-01-06T11:55:05;26.08;;;18.23;;
42430;SDS011;71905;47.466;19.024;2024-01-06T11:57:34;25.42;;;18.13;;
42430;SDS011;71905;47.466;19.024;2024-01-06T12:00:05;25.67;;;18.30;;
42430;SDS011;71905;47.466;19.024;2024-01-06T12:02:33;27.02;;;18.10;;
42430;SDS011;71905;47.466;19.024;2024-01-06T12:05:02;24.23;;;16.98;;
42430;SDS011;71905;47.466;19.024;2024-01-06T12:07:30;26.35;;;18.10;;
42430;SDS011;71905;47.466;19.024;2024-01-06T12:10:02;26.67;;;18.55;;
42430;SDS011;71905;47.466;19.024;2024-01-06T12:12:31;26.92;;;18.83;;
42430;SDS011;71905;47.466;19.024;2024-01-06T12:14:59;29.13;;;18.90;;
42430;SDS011;71905;47.466;19.024;2024-01-06T12:17:29;28.38;;;18.77;;
42430;SDS011;71905;47.466;19.024;2024-01-06T12:19:58;27.60;;;18.63;;
42430;SDS011;71905;47.466;19.024;2024-01-06T12:22:35;27.63;;;20.08;;
42430;SDS011;71905;47.466;19.024;2024-01-06T12:25:04;27.70;;;19.35;;
42430;SDS011;71905;47.466;19.024;2024-01-06T12:27:33;30.15;;;19.67;;
42430;SDS011;71905;47.466;19.024;2024-01-06T12:30:01;29.92;;;20.77;;
42430;SDS011;71905;47.466;19.024;2024-01-06T12:32:31;31.88;;;21.33;;
42430;SDS011;71905;47.466;19.024;2024-01-06T12:35:00;30.17;;;21.75;;
42430;SDS011;71905;47.466;19.024;2024-01-06T12:37:28;30.17;;;20.83;;
42430;SDS011;71905;47.466;19.024;2024-01-06T12:39:56;31.20;;;20.95;;
42430;SDS011;71905;47.466;19.024;2024-01-06T12:42:25;29.63;;;21.73;;
42430;SDS011;71905;47.466;19.024;2024-01-06T12:44:54;32.30;;;22.27;;
42430;SDS011;71905;47.466;19.024;2024-01-06T12:47:22;30.95;;;22.48;;
42430;SDS011;71905;47.466;19.024;2024-01-06T12:49:52;29.10;;;21.52;;
42430;SDS011;71905;47.466;19.024;2024-01-06T12:52:20;33.75;;;22.85;;
42430;SDS011;71905;47.466;19.024;2024-01-06T12:54:48;32.22;;;21.90;;
42430;SDS011;71905;47.466;19.024;2024-01-06T12:57:16;33.35;;;22.95;;
42430;SDS011;71905;47.466;19.024;2024-01-06T12:59:44;32.65;;;22.25;;
42430;SDS011;71905;47.466;19.024;2024-01-06T13:02:15;32.30;;;22.63;;
42430;SDS011;71905;47.466;19.024;2024-01-06T13:04:43;31.75;;;21.20;;
42430;SDS011;71905;47.466;19.024;2024-01-06T13:07:12;31.98;;;22.27;;
42430;SDS011;71905;47.466;19.024;2024-01-06T13:09:41;36.00;;;22.55;;
42430;SDS011;71905;47.466;19.024;2024-01-06T13:12:09;34.53;;;22.65;;
42430;SDS011;71905;47.466;19.024;2024-01-06T13:14:37;32.13;;;22.45;;
42430;SDS011;71905;47.466;19.024;2024-01-06T13:17:05;34.22;;;23.60;;
42430;SDS011;71905;47.466;19.024;2024-01-06T13:19:33;34.97;;;23.23;;
42430;SDS011;71905;47.466;19.024;2024-01-06T13:22:01;32.92;;;22.23;;
42430;SDS011;71905;47.466;19.024;2024-01-06T13:24:31;30.40;;;22.00;;
42430;SDS011;71905;47.466;19.024;2024-01-06T13:26:59;33.60;;;22.90;;
42430;SDS011;71905;47.466;19.024;2024-01-06T13:29:29;31.38;;;23.00;;
42430;SDS011;71905;47.466;19.024;2024-01-06T13:31:57;31.92;;;22.10;;
42430;SDS011;71905;47.466;19.024;2024-01-06T13:34:26;34.45;;;23.27;;
42430;SDS011;71905;47.466;19.024;2024-01-06T13:36:56;35.65;;;23.42;;
42430;SDS011;71905;47.466;19.024;2024-01-06T13:39:25;34.08;;;23.25;;
42430;SDS011;71905;47.466;19.024;2024-01-06T13:41:54;37.28;;;22.95;;
42430;SDS011;71905;47.466;19.024;2024-01-06T13:44:22;32.90;;;22.60;;
42430;SDS011;71905;47.466;19.024;2024-01-06T13:46:50;31.08;;;22.98;;
42430;SDS011;71905;47.466;19.024;2024-01-06T13:49:21;34.15;;;24.02;;
42430;SDS011;71905;47.466;19.024;2024-01-06T13:51:50;31.13;;;23.85;;
42430;SDS011;71905;47.466;19.024;2024-01-06T13:54:18;34.33;;;23.63;;
42430;SDS011;71905;47.466;19.024;2024-01-06T13:56:46;33.15;;;23.70;;
42430;SDS011;71905;47.466;19.024;2024-01-06T13:59:16;33.83;;;24.77;;
42430;SDS011;71905;47.466;19.024;2024-01-06T14:01:44;33.33;;;23.25;;
42430;SDS011;71905;47.466;19.024;2024-01-06T14:04:12;34.83;;;23.85;;
42430;SDS011;71905;47.466;19.024;2024-01-06T14:06:40;31.98;;;23.00;;
42430;SDS011;71905;47.466;19.024;2024-01-06T14:09:08;34.13;;;23.40;;
42430;SDS011;71905;47.466;19.024;2024-01-06T14:11:38;34.35;;;24.85;;
42430;SDS011;71905;47.466;19.024;2024-01-06T14:14:06;32.22;;;22.73;;
42430;SDS011;71905;47.466;19.024;2024-01-06T14:16:35;32.58;;;24.50;;